sensor_id;sensor_type;location;lat;lon;timestamp;P1;durP1;ratioP1;P2;durP2;ratioP2
826;SDS011;395;48.132;11.608;2022-12-07T00:01:07;14.57;;;10.65;;
826;SDS011;395;48.132;11.608;2022-12-07T00:03:34;14.73;;;10.05;;
826;SDS011;395;48.132;11.608;2022-12-07T00:06:00;15.75;;;11.70;;
826;SDS011;395;48.132;11.608;2022-12-07T00:08:27;13.32;;;9.50;;
826;SDS011;395;48.132;11.608;2022-12-07T00:10:53;13.23;;;10.20;;
826;SDS011;395;48.132;11.608;2022-12-07T00:13:18;10.17;;;8.43;;
826;SDS011;395;48.132;11.608;2022-12-07T00:15:44;12.53;;;9.20;;
826;SDS011;395;48.132;11.608;2022-12-07T00:18:10;12.70;;;8.90;;
826;SDS011;395;48.132;11.608;2022-12-07T00:20:36;12.10;;;9.00;;
826;SDS011;395;48.132;11.608;2022-12-07T00:23:01;9.73;;;8.13;;
826;SDS011;395;48.132;11.608;2022-12-07T00:25:27;10.33;;;8.90;;
826;SDS011;395;48.132;11.608;2022-12-07T00:27:53;12.97;;;8.70;;
826;SDS011;395;48.132;11.608;2022-12-07T00:30:21;11.10;;;8.82;;
826;SDS011;395;48.132;11.608;2022-12-07T00:32:47;13.32;;;9.65;;
826;SDS011;395;48.132;11.608;2022-12-07T00:35:13;10.33;;;8.00;;
826;SDS011;395;48.132;11.608;2022-12-07T00:37:39;11.20;;;8.47;;
826;SDS011;395;48.132;11.608;2022-12-07T00:40:05;11.70;;;8.67;;
826;SDS011;395;48.132;11.608;2022-12-07T00:42:31;12.23;;;8.38;;
826;SDS011;395;48.132;11.608;2022-12-07T00:44:57;11.03;;;9.50;;
826;SDS011;395;48.132;11.608;2022-12-07T00:47:22;11.77;;;8.70;;
826;SDS011;395;48.132;11.608;2022-12-07T00:49:48;10.90;;;8.03;;
826;SDS011;395;48.132;11.608;2022-12-07T00:52:14;13.60;;;7.77;;
826;SDS011;395;48.132;11.608;2022-12-07T00:54:39;12.83;;;9.17;;
826;SDS011;395;48.132;11.608;2022-12-07T00:57:05;10.10;;;8.10;;
826;SDS011;395;48.132;11.608;2022-12-07T00:59:31;13.80;;;9.47;;
826;SDS011;395;48.132;11.608;2022-12-07T01:01:57;10.60;;;8.00;;
826;SDS011;395;48.132;11.608;2022-12-07T01:04:22;11.30;;;8.37;;
826;SDS011;395;48.132;11.608;2022-12-07T01:06:48;13.07;;;9.10;;
826;SDS011;395;48.132;11.608;2022-12-07T01:09:13;13.67;;;9.43;;
826;SDS011;395;48.132;11.608;2022-12-07T01:11:39;10.30;;;8.17;;
826;SDS011;395;48.132;11.608;2022-12-07T01:14:05;12.33;;;9.30;;
826;SDS011;395;48.132;11.608;2022-12-07T01:16:31;11.93;;;9.03;;
826;SDS011;395;48.132;11.608;2022-12-07T01:18:58;10.80;;;9.02;;
826;SDS011;395;48.132;11.608;2022-12-07T01:21:25;9.48;;;8.38;;
826;SDS011;395;48.132;11.608;2022-12-07T01:23:53;11.13;;;8.50;;
826;SDS011;395;48.132;11.608;2022-12-07T01:26:22;8.95;;;7.43;;
826;SDS011;395;48.132;11.608;2022-12-07T01:28:49;11.00;;;8.40;;
826;SDS011;395;48.132;11.608;2022-12-07T01:31:17;10.20;;;7.45;;
826;SDS011;395;48.132;11.608;2022-12-07T01:33:45;8.68;;;7.22;;
826;SDS011;395;48.132;11.608;2022-12-07T01:38:40;10.07;;;7.82;;
826;SDS011;395;48.132;11.608;2022-12-07T01:41:06;11.75;;;7.40;;
826;SDS011;395;48.132;11.608;2022-12-07T01:43:33;9.60;;;8.13;;
826;SDS011;395;48.132;11.608;2022-12-07T01:45:59;10.47;;;7.50;;
826;SDS011;395;48.132;11.608;2022-12-07T01:48:33;12.55;;;8.52;;
826;SDS011;395;48.132;11.608;2022-12-07T01:51:04;9.38;;;7.60;;
826;SDS011;395;48.132;11.608;2022-12-07T01:53:36;10.07;;;8.20;;
826;SDS011;395;48.132;11.608;2022-12-07T01:56:08;9.18;;;7.53;;
826;SDS011;395;48.132;11.608;2022-12-07T01:58:37;10.05;;;7.32;;
826;SDS011;395;48.132;11.608;2022-12-07T02:01:03;10.50;;;8.77;;
826;SDS011;395;48.132;11.608;2022-12-07T02:03:34;9.80;;;8.35;;
826;SDS011;395;48.132;11.608;2022-12-07T02:06:04;11.88;;;8.75;;
826;SDS011;395;48.132;11.608;2022-12-07T02:08:31;11.65;;;8.10;;
826;SDS011;395;48.132;11.608;2022-12-07T02:10:57;11.02;;;8.63;;
826;SDS011;395;48.132;11.608;2022-12-07T02:13:23;11.13;;;8.93;;
826;SDS011;395;48.132;11.608;2022-12-07T02:21:11;8.95;;;8.05;;
826;SDS011;395;48.132;11.608;2022-12-07T02:26:38;12.07;;;8.70;;
826;SDS011;395;48.132;11.608;2022-12-07T02:31:37;10.52;;;8.70;;
826;SDS011;395;48.132;11.608;2022-12-07T02:37:01;8.20;;;6.97;;
826;SDS011;395;48.132;11.608;2022-12-07T02:39:37;10.77;;;8.90;;
826;SDS011;395;48.132;11.608;2022-12-07T02:42:13;12.77;;;9.82;;
826;SDS011;395;48.132;11.608;2022-12-07T02:44:43;10.60;;;7.85;;
826;SDS011;395;48.132;11.608;2022-12-07T02:47:12;9.73;;;7.90;;
826;SDS011;395;48.132;11.608;2022-12-07T02:49:41;9.68;;;7.75;;
826;SDS011;395;48.132;11.608;2022-12-07T02:52:07;9.90;;;7.95;;
826;SDS011;395;48.132;11.608;2022-12-07T02:54:33;10.87;;;8.10;;
826;SDS011;395;48.132;11.608;2022-12-07T02:57:06;10.23;;;8.07;;
826;SDS011;395;48.132;11.608;2022-12-07T03:10:41;10.35;;;8.80;;
826;SDS011;395;48.132;11.608;2022-12-07T03:16:21;11.07;;;8.38;;
826;SDS011;395;48.132;11.608;2022-12-07T03:21:39;13.82;;;9.57;;
826;SDS011;395;48.132;11.608;2022-12-07T03:24:12;11.07;;;8.45;;
826;SDS011;395;48.132;11.608;2022-12-07T03:26:49;13.95;;;9.05;;
826;SDS011;395;48.132;11.608;2022-12-07T03:29:19;11.23;;;8.75;;
826;SDS011;395;48.132;11.608;2022-12-07T03:31:54;11.80;;;9.52;;
826;SDS011;395;48.132;11.608;2022-12-07T03:34:32;11.05;;;9.13;;
826;SDS011;395;48.132;11.608;2022-12-07T03:37:15;12.95;;;8.25;;
826;SDS011;395;48.132;11.608;2022-12-07T03:42:31;12.02;;;8.80;;
826;SDS011;395;48.132;11.608;2022-12-07T03:44:58;11.65;;;8.18;;
826;SDS011;395;48.132;11.608;2022-12-07T03:50:02;11.93;;;9.50;;
826;SDS011;395;48.132;11.608;2022-12-07T03:52:52;11.25;;;8.70;;
826;SDS011;395;48.132;11.608;2022-12-07T03:55:27;11.98;;;8.98;;
826;SDS011;395;48.132;11.608;2022-12-07T03:57:58;12.75;;;10.00;;
826;SDS011;395;48.132;11.608;2022-12-07T04:00:27;12.48;;;9.20;;
826;SDS011;395;48.132;11.608;2022-12-07T04:02:53;12.33;;;9.40;;
826;SDS011;395;48.132;11.608;2022-12-07T04:05:19;13.80;;;11.15;;
826;SDS011;395;48.132;11.608;2022-12-07T04:07:45;15.32;;;10.18;;
826;SDS011;395;48.132;11.608;2022-12-07T04:10:11;14.47;;;10.37;;
826;SDS011;395;48.132;11.608;2022-12-07T04:12:37;12.68;;;9.27;;
826;SDS011;395;48.132;11.608;2022-12-07T04:15:03;10.93;;;9.03;;
826;SDS011;395;48.132;11.608;2022-12-07T04:17:30;14.70;;;10.50;;
826;SDS011;395;48.132;11.608;2022-12-07T04:19:55;11.53;;;8.80;;
826;SDS011;395;48.132;11.608;2022-12-07T04:22:21;14.00;;;10.07;;
826;SDS011;395;48.132;11.608;2022-12-07T04:24:47;14.73;;;10.30;;
826;SDS011;395;48.132;11.608;2022-12-07T04:27:12;14.90;;;10.63;;
826;SDS011;395;48.132;11.608;2022-12-07T04:29:38;13.80;;;10.17;;
826;SDS011;395;48.132;11.608;2022-12-07T04:32:03;13.23;;;10.03;;
826;SDS011;395;48.132;11.608;2022-12-07T04:34:29;11.67;;;9.90;;
826;SDS011;395;48.132;11.608;2022-12-07T04:36:55;13.00;;;9.37;;
826;SDS011;395;48.132;11.608;2022-12-07T04:39:25;13.77;;;9.60;;
826;SDS011;395;48.132;11.608;2022-12-07T04:41:52;12.95;;;9.40;;
826;SDS011;395;48.132;11.608;2022-12-07T04:44:19;14.10;;;10.33;;
826;SDS011;395;48.132;11.608;2022-12-07T04:46:45;13.32;;;9.63;;
826;SDS011;395;48.132;11.608;2022-12-07T04:49:12;13.10;;;10.00;;
826;SDS011;395;48.132;11.608;2022-12-07T04:51:44;12.70;;;10.13;;
826;SDS011;395;48.132;11.608;2022-12-07T04:54:10;11.32;;;9.23;;
826;SDS011;395;48.132;11.608;2022-12-07T04:56:36;13.65;;;9.80;;
826;SDS011;395;48.132;11.608;2022-12-07T04:59:02;11.80;;;9.30;;
826;SDS011;395;48.132;11.608;2022-12-07T05:01:29;13.00;;;10.25;;
826;SDS011;395;48.132;11.608;2022-12-07T05:03:55;12.77;;;9.57;;
826;SDS011;395;48.132;11.608;2022-12-07T05:06:21;12.70;;;9.13;;
826;SDS011;395;48.132;11.608;2022-12-07T05:08:47;12.97;;;9.60;;
826;SDS011;395;48.132;11.608;2022-12-07T05:11:12;12.00;;;9.87;;
826;SDS011;395;48.132;11.608;2022-12-07T05:14:00;13.00;;;8.85;;
826;SDS011;395;48.132;11.608;2022-12-07T05:16:26;13.35;;;8.82;;
826;SDS011;395;48.132;11.608;2022-12-07T05:18:51;11.70;;;9.17;;
826;SDS011;395;48.132;11.608;2022-12-07T05:21:17;14.20;;;9.40;;
826;SDS011;395;48.132;11.608;2022-12-07T05:23:43;11.60;;;8.93;;
826;SDS011;395;48.132;11.608;2022-12-07T05:26:08;10.67;;;8.80;;
826;SDS011;395;48.132;11.608;2022-12-07T05:28:34;11.83;;;8.60;;
826;SDS011;395;48.132;11.608;2022-12-07T05:31:00;11.30;;;8.90;;
826;SDS011;395;48.132;11.608;2022-12-07T05:33:26;12.27;;;8.73;;
826;SDS011;395;48.132;11.608;2022-12-07T05:35:51;10.83;;;8.53;;
826;SDS011;395;48.132;11.608;2022-12-07T05:38:17;12.10;;;8.70;;
826;SDS011;395;48.132;11.608;2022-12-07T05:40:43;11.40;;;8.47;;
826;SDS011;395;48.132;11.608;2022-12-07T05:43:08;11.13;;;8.70;;
826;SDS011;395;48.132;11.608;2022-12-07T05:45:35;11.95;;;9.32;;
826;SDS011;395;48.132;11.608;2022-12-07T05:48:01;13.10;;;8.93;;
826;SDS011;395;48.132;11.608;2022-12-07T05:50:27;10.63;;;7.65;;
826;SDS011;395;48.132;11.608;2022-12-07T05:52:53;11.87;;;9.33;;
826;SDS011;395;48.132;11.608;2022-12-07T05:55:19;11.17;;;8.67;;
826;SDS011;395;48.132;11.608;2022-12-07T05:57:44;10.68;;;8.55;;
826;SDS011;395;48.132;11.608;2022-12-07T06:00:30;10.45;;;8.52;;
826;SDS011;395;48.132;11.608;2022-12-07T06:02:56;10.45;;;7.90;;
826;SDS011;395;48.132;11.608;2022-12-07T06:05:22;12.27;;;8.60;;
826;SDS011;395;48.132;11.608;2022-12-07T06:07:48;10.50;;;8.40;;
826;SDS011;395;48.132;11.608;2022-12-07T06:10:13;11.80;;;8.67;;
826;SDS011;395;48.132;11.608;2022-12-07T06:12:39;13.50;;;9.23;;
826;SDS011;395;48.132;11.608;2022-12-07T06:15:07;12.80;;;9.75;;
826;SDS011;395;48.132;11.608;2022-12-07T06:17:34;11.57;;;9.38;;
826;SDS011;395;48.132;11.608;2022-12-07T06:20:00;11.83;;;9.43;;
826;SDS011;395;48.132;11.608;2022-12-07T06:22:26;12.10;;;10.20;;
826;SDS011;395;48.132;11.608;2022-12-07T06:24:51;12.43;;;9.53;;
826;SDS011;395;48.132;11.608;2022-12-07T06:27:17;15.40;;;10.23;;
826;SDS011;395;48.132;11.608;2022-12-07T06:29:43;11.23;;;8.83;;
826;SDS011;395;48.132;11.608;2022-12-07T06:32:08;15.30;;;9.40;;
826;SDS011;395;48.132;11.608;2022-12-07T06:34:34;12.43;;;9.13;;
826;SDS011;395;48.132;11.608;2022-12-07T06:37:00;12.97;;;10.10;;
826;SDS011;395;48.132;11.608;2022-12-07T06:39:27;15.60;;;10.60;;
826;SDS011;395;48.132;11.608;2022-12-07T06:41:53;11.52;;;9.13;;
826;SDS011;395;48.132;11.608;2022-12-07T06:44:19;13.55;;;9.90;;
826;SDS011;395;48.132;11.608;2022-12-07T06:46:47;11.27;;;8.85;;
826;SDS011;395;48.132;11.608;2022-12-07T06:49:13;12.55;;;9.70;;
826;SDS011;395;48.132;11.608;2022-12-07T06:51:39;14.90;;;9.27;;
826;SDS011;395;48.132;11.608;2022-12-07T06:54:08;11.27;;;8.45;;
826;SDS011;395;48.132;11.608;2022-12-07T06:56:38;14.43;;;8.40;;
826;SDS011;395;48.132;11.608;2022-12-07T06:59:04;10.20;;;8.47;;
826;SDS011;395;48.132;11.608;2022-12-07T07:01:31;13.10;;;9.93;;
826;SDS011;395;48.132;11.608;2022-12-07T07:03:57;12.80;;;10.23;;
826;SDS011;395;48.132;11.608;2022-12-07T07:06:23;13.50;;;10.47;;
826;SDS011;395;48.132;11.608;2022-12-07T07:08:49;13.40;;;9.97;;
826;SDS011;395;48.132;11.608;2022-12-07T07:11:15;13.60;;;10.40;;
826;SDS011;395;48.132;11.608;2022-12-07T07:13:40;14.63;;;10.23;;
826;SDS011;395;48.132;11.608;2022-12-07T07:16:06;15.77;;;10.50;;
826;SDS011;395;48.132;11.608;2022-12-07T07:18:32;12.60;;;9.80;;
826;SDS011;395;48.132;11.608;2022-12-07T07:20:58;14.20;;;9.30;;
826;SDS011;395;48.132;11.608;2022-12-07T07:23:24;12.47;;;9.77;;
826;SDS011;395;48.132;11.608;2022-12-07T07:25:50;11.50;;;9.00;;
826;SDS011;395;48.132;11.608;2022-12-07T07:28:16;10.60;;;8.47;;
826;SDS011;395;48.132;11.608;2022-12-07T07:30:42;13.13;;;10.05;;
826;SDS011;395;48.132;11.608;2022-12-07T07:33:07;12.07;;;9.97;;
826;SDS011;395;48.132;11.608;2022-12-07T07:35:35;12.57;;;10.35;;
826;SDS011;395;48.132;11.608;2022-12-07T07:38:01;13.80;;;10.33;;
826;SDS011;395;48.132;11.608;2022-12-07T07:40:27;12.68;;;9.82;;
826;SDS011;395;48.132;11.608;2022-12-07T07:42:56;10.90;;;9.55;;
826;SDS011;395;48.132;11.608;2022-12-07T07:45:22;12.65;;;10.48;;
826;SDS011;395;48.132;11.608;2022-12-07T07:47:49;14.27;;;10.40;;
826;SDS011;395;48.132;11.608;2022-12-07T07:50:15;14.77;;;10.80;;
826;SDS011;395;48.132;11.608;2022-12-07T07:52:42;16.83;;;11.43;;
826;SDS011;395;48.132;11.608;2022-12-07T07:55:08;12.57;;;10.30;;
826;SDS011;395;48.132;11.608;2022-12-07T07:57:34;14.43;;;9.93;;
826;SDS011;395;48.132;11.608;2022-12-07T08:00:01;15.00;;;10.43;;
826;SDS011;395;48.132;11.608;2022-12-07T08:02:33;12.27;;;9.13;;
826;SDS011;395;48.132;11.608;2022-12-07T08:04:59;12.80;;;10.23;;
826;SDS011;395;48.132;11.608;2022-12-07T08:07:25;14.93;;;10.63;;
826;SDS011;395;48.132;11.608;2022-12-07T08:09:52;15.70;;;11.35;;
826;SDS011;395;48.132;11.608;2022-12-07T08:12:18;14.13;;;10.90;;
826;SDS011;395;48.132;11.608;2022-12-07T08:14:44;13.87;;;10.90;;
826;SDS011;395;48.132;11.608;2022-12-07T08:17:10;17.05;;;12.40;;
826;SDS011;395;48.132;11.608;2022-12-07T08:19:37;15.57;;;10.80;;
826;SDS011;395;48.132;11.608;2022-12-07T08:22:03;17.23;;;13.13;;
826;SDS011;395;48.132;11.608;2022-12-07T08:24:28;15.23;;;11.20;;
826;SDS011;395;48.132;11.608;2022-12-07T08:26:54;16.30;;;12.40;;
826;SDS011;395;48.132;11.608;2022-12-07T08:29:20;12.97;;;10.90;;
826;SDS011;395;48.132;11.608;2022-12-07T08:31:46;14.77;;;10.83;;
826;SDS011;395;48.132;11.608;2022-12-07T08:34:11;13.98;;;10.13;;
826;SDS011;395;48.132;11.608;2022-12-07T08:36:38;13.23;;;11.23;;
826;SDS011;395;48.132;11.608;2022-12-07T08:39:04;16.35;;;11.95;;
826;SDS011;395;48.132;11.608;2022-12-07T08:41:30;14.17;;;11.37;;
826;SDS011;395;48.132;11.608;2022-12-07T08:43:55;16.70;;;12.77;;
826;SDS011;395;48.132;11.608;2022-12-07T08:46:23;18.90;;;12.10;;
826;SDS011;395;48.132;11.608;2022-12-07T08:49:12;14.43;;;11.07;;
826;SDS011;395;48.132;11.608;2022-12-07T08:51:42;16.80;;;12.30;;
826;SDS011;395;48.132;11.608;2022-12-07T08:54:09;15.80;;;11.60;;
826;SDS011;395;48.132;11.608;2022-12-07T08:56:39;15.50;;;11.32;;
826;SDS011;395;48.132;11.608;2022-12-07T08:59:05;14.45;;;10.63;;
826;SDS011;395;48.132;11.608;2022-12-07T09:01:32;14.63;;;10.93;;
826;SDS011;395;48.132;11.608;2022-12-07T09:03:58;17.50;;;12.07;;
826;SDS011;395;48.132;11.608;2022-12-07T09:06:24;15.10;;;11.90;;
826;SDS011;395;48.132;11.608;2022-12-07T09:08:51;13.98;;;10.30;;
826;SDS011;395;48.132;11.608;2022-12-07T09:11:20;16.33;;;11.30;;
826;SDS011;395;48.132;11.608;2022-12-07T09:13:46;16.60;;;11.87;;
826;SDS011;395;48.132;11.608;2022-12-07T09:16:12;12.47;;;9.97;;
826;SDS011;395;48.132;11.608;2022-12-07T09:18:37;12.30;;;9.37;;
826;SDS011;395;48.132;11.608;2022-12-07T09:21:03;15.30;;;10.23;;
826;SDS011;395;48.132;11.608;2022-12-07T09:23:29;13.93;;;11.35;;
826;SDS011;395;48.132;11.608;2022-12-07T09:25:58;15.47;;;11.47;;
826;SDS011;395;48.132;11.608;2022-12-07T09:28:27;17.77;;;10.73;;
826;SDS011;395;48.132;11.608;2022-12-07T09:30:53;15.70;;;10.63;;
826;SDS011;395;48.132;11.608;2022-12-07T09:33:19;12.00;;;9.27;;
826;SDS011;395;48.132;11.608;2022-12-07T09:35:45;14.00;;;9.80;;
826;SDS011;395;48.132;11.608;2022-12-07T09:38:12;13.27;;;9.85;;
826;SDS011;395;48.132;11.608;2022-12-07T09:40:38;12.35;;;9.75;;
826;SDS011;395;48.132;11.608;2022-12-07T09:43:05;11.25;;;8.85;;
826;SDS011;395;48.132;11.608;2022-12-07T09:45:36;13.55;;;9.90;;
826;SDS011;395;48.132;11.608;2022-12-07T09:48:03;12.07;;;9.18;;
826;SDS011;395;48.132;11.608;2022-12-07T09:50:29;14.10;;;10.10;;
826;SDS011;395;48.132;11.608;2022-12-07T09:53:01;13.63;;;9.37;;
826;SDS011;395;48.132;11.608;2022-12-07T09:55:33;13.57;;;9.95;;
826;SDS011;395;48.132;11.608;2022-12-07T09:58:00;13.18;;;8.80;;
826;SDS011;395;48.132;11.608;2022-12-07T10:00:26;12.40;;;9.20;;
826;SDS011;395;48.132;11.608;2022-12-07T10:02:57;10.27;;;8.18;;
826;SDS011;395;48.132;11.608;2022-12-07T10:05:32;11.30;;;8.40;;
826;SDS011;395;48.132;11.608;2022-12-07T10:08:03;11.73;;;9.50;;
826;SDS011;395;48.132;11.608;2022-12-07T10:10:31;15.15;;;11.13;;
826;SDS011;395;48.132;11.608;2022-12-07T10:13:02;11.00;;;8.95;;
826;SDS011;395;48.132;11.608;2022-12-07T10:21:20;14.93;;;9.38;;
826;SDS011;395;48.132;11.608;2022-12-07T10:24:03;12.45;;;9.50;;
826;SDS011;395;48.132;11.608;2022-12-07T10:26:34;11.25;;;8.15;;
826;SDS011;395;48.132;11.608;2022-12-07T10:31:44;10.50;;;7.97;;
826;SDS011;395;48.132;11.608;2022-12-07T10:34:22;10.65;;;7.50;;
826;SDS011;395;48.132;11.608;2022-12-07T10:36:54;8.40;;;6.03;;
826;SDS011;395;48.132;11.608;2022-12-07T10:39:53;11.90;;;6.93;;
826;SDS011;395;48.132;11.608;2022-12-07T10:42:29;9.90;;;7.35;;
826;SDS011;395;48.132;11.608;2022-12-07T10:45:09;11.20;;;8.43;;
826;SDS011;395;48.132;11.608;2022-12-07T10:47:51;8.73;;;6.55;;
826;SDS011;395;48.132;11.608;2022-12-07T11:04:49;9.02;;;6.80;;
826;SDS011;395;48.132;11.608;2022-12-07T11:18:11;7.32;;;5.90;;
826;SDS011;395;48.132;11.608;2022-12-07T11:20:51;7.85;;;6.00;;
826;SDS011;395;48.132;11.608;2022-12-07T11:23:47;9.77;;;6.20;;
826;SDS011;395;48.132;11.608;2022-12-07T11:26:23;6.95;;;5.90;;
826;SDS011;395;48.132;11.608;2022-12-07T11:29:01;7.82;;;5.93;;
826;SDS011;395;48.132;11.608;2022-12-07T11:31:58;9.10;;;5.80;;
826;SDS011;395;48.132;11.608;2022-12-07T11:34:36;10.00;;;7.20;;
826;SDS011;395;48.132;11.608;2022-12-07T11:37:25;11.35;;;7.80;;
826;SDS011;395;48.132;11.608;2022-12-07T11:39:59;8.98;;;6.50;;
826;SDS011;395;48.132;11.608;2022-12-07T11:42:36;9.20;;;6.30;;
826;SDS011;395;48.132;11.608;2022-12-07T11:45:16;8.48;;;5.80;;
826;SDS011;395;48.132;11.608;2022-12-07T11:48:02;10.35;;;7.13;;
826;SDS011;395;48.132;11.608;2022-12-07T11:50:48;9.02;;;6.90;;
826;SDS011;395;48.132;11.608;2022-12-07T11:55:57;7.30;;;6.05;;
826;SDS011;395;48.132;11.608;2022-12-07T12:03:51;8.05;;;6.40;;
826;SDS011;395;48.132;11.608;2022-12-07T12:06:21;8.20;;;5.90;;
826;SDS011;395;48.132;11.608;2022-12-07T12:11:27;9.43;;;6.32;;
826;SDS011;395;48.132;11.608;2022-12-07T12:22:20;6.78;;;5.20;;
826;SDS011;395;48.132;11.608;2022-12-07T12:24:52;6.95;;;5.65;;
826;SDS011;395;48.132;11.608;2022-12-07T12:27:27;8.48;;;5.28;;
826;SDS011;395;48.132;11.608;2022-12-07T12:30:01;11.23;;;7.18;;
826;SDS011;395;48.132;11.608;2022-12-07T12:35:20;7.95;;;5.88;;
826;SDS011;395;48.132;11.608;2022-12-07T12:37:53;9.52;;;6.22;;
826;SDS011;395;48.132;11.608;2022-12-07T12:42:56;8.88;;;5.60;;
826;SDS011;395;48.132;11.608;2022-12-07T12:45:22;9.20;;;5.78;;
826;SDS011;395;48.132;11.608;2022-12-07T12:50:21;12.02;;;7.80;;
826;SDS011;395;48.132;11.608;2022-12-07T12:52:53;9.57;;;6.90;;
826;SDS011;395;48.132;11.608;2022-12-07T12:55:29;8.35;;;5.85;;
826;SDS011;395;48.132;11.608;2022-12-07T12:58:28;7.60;;;5.25;;
826;SDS011;395;48.132;11.608;2022-12-07T13:04:00;9.90;;;7.43;;
826;SDS011;395;48.132;11.608;2022-12-07T13:08:53;12.60;;;8.33;;
826;SDS011;395;48.132;11.608;2022-12-07T13:11:35;9.63;;;7.68;;
826;SDS011;395;48.132;11.608;2022-12-07T13:27:47;11.57;;;7.72;;
826;SDS011;395;48.132;11.608;2022-12-07T13:30:21;9.52;;;7.45;;
826;SDS011;395;48.132;11.608;2022-12-07T13:32:54;10.52;;;8.10;;
826;SDS011;395;48.132;11.608;2022-12-07T13:35:31;9.10;;;6.90;;
826;SDS011;395;48.132;11.608;2022-12-07T13:38:04;11.27;;;8.00;;
826;SDS011;395;48.132;11.608;2022-12-07T13:40:40;9.93;;;6.25;;
826;SDS011;395;48.132;11.608;2022-12-07T13:43:19;10.17;;;7.27;;
826;SDS011;395;48.132;11.608;2022-12-07T13:45:55;9.45;;;6.60;;
826;SDS011;395;48.132;11.608;2022-12-07T13:48:36;7.20;;;6.13;;
826;SDS011;395;48.132;11.608;2022-12-07T13:51:34;11.95;;;7.72;;
826;SDS011;395;48.132;11.608;2022-12-07T13:54:01;11.75;;;7.50;;
826;SDS011;395;48.132;11.608;2022-12-07T13:56:35;8.80;;;6.55;;
826;SDS011;395;48.132;11.608;2022-12-07T13:59:01;10.90;;;7.23;;
826;SDS011;395;48.132;11.608;2022-12-07T14:01:28;9.93;;;7.93;;
826;SDS011;395;48.132;11.608;2022-12-07T14:03:56;11.20;;;7.75;;
826;SDS011;395;48.132;11.608;2022-12-07T14:06:55;10.82;;;7.85;;
826;SDS011;395;48.132;11.608;2022-12-07T14:09:22;10.97;;;8.47;;
826;SDS011;395;48.132;11.608;2022-12-07T14:11:50;9.95;;;6.55;;
826;SDS011;395;48.132;11.608;2022-12-07T14:14:28;9.15;;;6.32;;
826;SDS011;395;48.132;11.608;2022-12-07T14:17:17;10.68;;;6.85;;
826;SDS011;395;48.132;11.608;2022-12-07T14:19:45;9.13;;;6.50;;
826;SDS011;395;48.132;11.608;2022-12-07T14:24:58;9.35;;;6.45;;
826;SDS011;395;48.132;11.608;2022-12-07T14:27:36;9.13;;;6.35;;
826;SDS011;395;48.132;11.608;2022-12-07T14:30:02;8.30;;;6.60;;
826;SDS011;395;48.132;11.608;2022-12-07T14:32:29;9.85;;;6.65;;
826;SDS011;395;48.132;11.608;2022-12-07T14:37:33;11.88;;;6.60;;
826;SDS011;395;48.132;11.608;2022-12-07T14:39:59;9.50;;;6.70;;
826;SDS011;395;48.132;11.608;2022-12-07T14:42:27;7.90;;;6.10;;
826;SDS011;395;48.132;11.608;2022-12-07T14:44:55;9.10;;;6.43;;
826;SDS011;395;48.132;11.608;2022-12-07T14:47:22;8.68;;;5.95;;
826;SDS011;395;48.132;11.608;2022-12-07T14:49:48;7.43;;;5.47;;
826;SDS011;395;48.132;11.608;2022-12-07T14:52:16;8.93;;;5.77;;
826;SDS011;395;48.132;11.608;2022-12-07T14:54:44;7.32;;;6.50;;
826;SDS011;395;48.132;11.608;2022-12-07T14:57:10;9.40;;;6.47;;
826;SDS011;395;48.132;11.608;2022-12-07T14:59:36;8.60;;;5.87;;
826;SDS011;395;48.132;11.608;2022-12-07T15:02:02;10.40;;;6.53;;
826;SDS011;395;48.132;11.608;2022-12-07T15:04:28;10.50;;;6.57;;
826;SDS011;395;48.132;11.608;2022-12-07T15:06:55;8.97;;;7.30;;
826;SDS011;395;48.132;11.608;2022-12-07T15:09:28;8.60;;;6.60;;
826;SDS011;395;48.132;11.608;2022-12-07T15:11:53;8.63;;;6.40;;
826;SDS011;395;48.132;11.608;2022-12-07T15:14:19;9.87;;;6.97;;
826;SDS011;395;48.132;11.608;2022-12-07T15:16:45;8.83;;;7.37;;
826;SDS011;395;48.132;11.608;2022-12-07T15:19:15;12.50;;;7.97;;
826;SDS011;395;48.132;11.608;2022-12-07T15:21:43;12.20;;;8.43;;
826;SDS011;395;48.132;11.608;2022-12-07T15:24:12;9.75;;;7.28;;
826;SDS011;395;48.132;11.608;2022-12-07T15:26:38;12.15;;;7.78;;
826;SDS011;395;48.132;11.608;2022-12-07T15:29:04;11.25;;;8.20;;
826;SDS011;395;48.132;11.608;2022-12-07T15:31:31;13.48;;;8.10;;
826;SDS011;395;48.132;11.608;2022-12-07T15:33:57;14.35;;;9.82;;
826;SDS011;395;48.132;11.608;2022-12-07T15:36:25;17.70;;;11.47;;
826;SDS011;395;48.132;11.608;2022-12-07T15:38:52;27.10;;;15.32;;
826;SDS011;395;48.132;11.608;2022-12-07T15:41:18;21.47;;;12.73;;
826;SDS011;395;48.132;11.608;2022-12-07T15:43:43;17.20;;;11.83;;
826;SDS011;395;48.132;11.608;2022-12-07T15:46:32;17.73;;;11.38;;
826;SDS011;395;48.132;11.608;2022-12-07T15:49:00;15.07;;;10.18;;
826;SDS011;395;48.132;11.608;2022-12-07T15:51:26;12.70;;;9.32;;
826;SDS011;395;48.132;11.608;2022-12-07T15:53:52;14.77;;;10.15;;
826;SDS011;395;48.132;11.608;2022-12-07T15:56:18;17.67;;;10.82;;
826;SDS011;395;48.132;11.608;2022-12-07T15:58:43;14.53;;;11.33;;
826;SDS011;395;48.132;11.608;2022-12-07T16:01:13;11.27;;;9.10;;
826;SDS011;395;48.132;11.608;2022-12-07T16:03:41;13.38;;;9.05;;
826;SDS011;395;48.132;11.608;2022-12-07T16:06:07;11.82;;;8.95;;
826;SDS011;395;48.132;11.608;2022-12-07T16:08:33;12.90;;;9.98;;
826;SDS011;395;48.132;11.608;2022-12-07T16:10:59;12.20;;;8.77;;
826;SDS011;395;48.132;11.608;2022-12-07T16:13:29;11.30;;;9.50;;
826;SDS011;395;48.132;11.608;2022-12-07T16:15:54;12.90;;;9.73;;
826;SDS011;395;48.132;11.608;2022-12-07T16:18:20;14.47;;;10.70;;
826;SDS011;395;48.132;11.608;2022-12-07T16:20:47;13.10;;;9.90;;
826;SDS011;395;48.132;11.608;2022-12-07T16:23:14;16.42;;;10.20;;
826;SDS011;395;48.132;11.608;2022-12-07T16:25:40;14.13;;;10.13;;
826;SDS011;395;48.132;11.608;2022-12-07T16:28:05;12.80;;;8.60;;
826;SDS011;395;48.132;11.608;2022-12-07T16:30:32;15.02;;;9.40;;
826;SDS011;395;48.132;11.608;2022-12-07T16:32:58;13.95;;;9.68;;
826;SDS011;395;48.132;11.608;2022-12-07T16:35:24;14.73;;;9.80;;
826;SDS011;395;48.132;11.608;2022-12-07T16:37:49;11.43;;;9.30;;
826;SDS011;395;48.132;11.608;2022-12-07T16:40:15;16.27;;;9.50;;
826;SDS011;395;48.132;11.608;2022-12-07T16:42:41;16.50;;;10.90;;
826;SDS011;395;48.132;11.608;2022-12-07T16:45:06;14.30;;;10.30;;
826;SDS011;395;48.132;11.608;2022-12-07T16:47:32;15.88;;;11.25;;
826;SDS011;395;48.132;11.608;2022-12-07T16:50:01;14.65;;;10.60;;
826;SDS011;395;48.132;11.608;2022-12-07T16:52:27;16.43;;;10.90;;
826;SDS011;395;48.132;11.608;2022-12-07T16:54:53;13.97;;;11.10;;
826;SDS011;395;48.132;11.608;2022-12-07T16:57:18;16.73;;;10.97;;
826;SDS011;395;48.132;11.608;2022-12-07T16:59:44;16.17;;;10.97;;
826;SDS011;395;48.132;11.608;2022-12-07T17:02:11;15.15;;;10.38;;
826;SDS011;395;48.132;11.608;2022-12-07T17:04:37;15.30;;;11.07;;
826;SDS011;395;48.132;11.608;2022-12-07T17:07:04;13.35;;;10.10;;
826;SDS011;395;48.132;11.608;2022-12-07T17:09:30;17.90;;;10.93;;
826;SDS011;395;48.132;11.608;2022-12-07T17:11:56;16.60;;;12.17;;
826;SDS011;395;48.132;11.608;2022-12-07T17:14:22;17.57;;;12.93;;
826;SDS011;395;48.132;11.608;2022-12-07T17:17:06;19.10;;;13.15;;
826;SDS011;395;48.132;11.608;2022-12-07T17:19:32;22.23;;;13.93;;
826;SDS011;395;48.132;11.608;2022-12-07T17:21:58;19.23;;;12.80;;
826;SDS011;395;48.132;11.608;2022-12-07T17:24:23;20.10;;;12.03;;
826;SDS011;395;48.132;11.608;2022-12-07T17:26:50;21.50;;;11.00;;
826;SDS011;395;48.132;11.608;2022-12-07T17:29:16;16.40;;;12.82;;